createdAt,value
2017-08-07T00:00:08.263Z,0
2017-08-07T00:00:56.369Z,0
2017-08-07T00:01:44.430Z,0
2017-08-07T00:02:33.375Z,0
2017-08-07T00:03:21.528Z,0
2017-08-07T00:04:09.541Z,0
2017-08-07T00:04:58.567Z,0
2017-08-07T00:05:46.606Z,0
2017-08-07T00:06:34.536Z,0
2017-08-07T00:07:23.828Z,0
2017-08-07T00:08:11.337Z,0
2017-08-07T00:08:59.698Z,0
2017-08-07T00:09:48.589Z,0
2017-08-07T00:10:36.709Z,0
2017-08-07T00:11:24.920Z,0
2017-08-07T00:12:12.821Z,0
2017-08-07T00:13:01.871Z,0
2017-08-07T00:13:50.040Z,0
2017-08-07T00:14:39.009Z,0
2017-08-07T00:15:27.124Z,0
2017-08-07T00:16:15.094Z,0
2017-08-07T00:17:04.061Z,0
2017-08-07T00:17:52.096Z,0
2017-08-07T00:18:40.218Z,0
2017-08-07T00:19:29.156Z,0
2017-08-07T00:20:17.221Z,0
2017-08-07T00:21:05.358Z,0
2017-08-07T00:21:54.293Z,0
2017-08-07T00:22:42.414Z,0
2017-08-07T00:23:30.548Z,0
2017-08-07T00:24:19.605Z,0
2017-08-07T00:25:07.516Z,0
2017-08-07T00:25:55.635Z,0
2017-08-07T00:26:43.594Z,0
2017-08-07T00:27:37.726Z,0
2017-08-07T00:28:37.751Z,0
2017-08-07T00:29:32.769Z,0
2017-08-07T00:30:33.805Z,0
2017-08-07T00:31:33.803Z,0
2017-08-07T00:32:33.927Z,0
2017-08-07T00:33:28.783Z,0
2017-08-07T00:34:22.928Z,0
2017-08-07T00:35:23.896Z,0
2017-08-07T00:36:24.940Z,0
2017-08-07T00:37:19.955Z,0
2017-08-07T00:38:14.045Z,0
2017-08-07T00:39:15.034Z,0
2017-08-07T00:40:15.170Z,0
2017-08-07T00:41:15.035Z,0
2017-08-07T00:42:10.038Z,0
2017-08-07T00:43:04.185Z,0
2017-08-07T00:44:10.169Z,0
2017-08-07T00:45:04.410Z,0
2017-08-07T00:46:04.332Z,0
2017-08-07T00:46:58.857Z,0
2017-08-07T00:47:59.237Z,0
2017-08-07T00:48:53.383Z,0
2017-08-07T00:49:53.325Z,0
2017-08-07T00:50:48.430Z,0
2017-08-07T00:51:43.389Z,0
2017-08-07T00:52:43.411Z,0
2017-08-07T00:53:38.519Z,0
2017-08-07T00:54:38.719Z,0
2017-08-07T00:55:38.611Z,0
2017-08-07T00:56:44.483Z,0
2017-08-07T00:57:39.132Z,0
2017-08-07T00:58:39.507Z,0
2017-08-07T00:59:39.575Z,0
2017-08-07T01:00:39.722Z,0
2017-08-07T01:01:34.629Z,0
2017-08-07T01:02:34.306Z,0
2017-08-07T01:03:28.352Z,0
2017-08-07T01:04:29.535Z,0
2017-08-07T01:05:30.498Z,0
2017-08-07T01:06:25.777Z,0
2017-08-07T01:07:19.514Z,0
2017-08-07T01:08:19.728Z,0
2017-08-07T01:09:14.991Z,0
2017-08-07T01:10:15.112Z,0
2017-08-07T01:11:08.973Z,0
2017-08-07T01:12:09.663Z,0
2017-08-07T01:13:10.968Z,0
2017-08-07T01:14:12.049Z,0
2017-08-07T01:15:06.867Z,0
2017-08-07T01:16:01.382Z,0
2017-08-07T01:17:01.243Z,0
2017-08-07T01:17:56.313Z,0
2017-08-07T01:18:56.009Z,0
2017-08-07T01:19:49.911Z,0
2017-08-07T01:20:50.495Z,0
2017-08-07T01:21:45.082Z,0
2017-08-07T01:22:40.069Z,0
2017-08-07T01:23:40.163Z,0
2017-08-07T01:24:35.131Z,0
2017-08-07T01:25:30.331Z,0
2017-08-07T01:26:30.339Z,0
2017-08-07T01:27:25.240Z,0
2017-08-07T01:28:20.295Z,0
2017-08-07T01:29:21.271Z,0
2017-08-07T01:30:22.034Z,0
2017-08-07T01:31:21.710Z,0
2017-08-07T01:32:16.628Z,0
2017-08-07T01:33:10.470Z,0
2017-08-07T01:34:10.398Z,0
2017-08-07T01:35:05.539Z,0
2017-08-07T01:36:06.177Z,0
2017-08-07T01:37:05.891Z,0
2017-08-07T01:38:11.693Z,0
2017-08-07T01:39:06.678Z,0
2017-08-07T01:40:06.700Z,0
2017-08-07T01:41:02.048Z,0
2017-08-07T01:41:57.295Z,0
2017-08-07T01:42:56.798Z,0
2017-08-07T01:43:51.888Z,0
2017-08-07T01:44:46.838Z,0
2017-08-07T01:45:47.444Z,0
2017-08-07T01:46:41.858Z,0
2017-08-07T01:47:36.948Z,0
2017-08-07T01:48:37.973Z,0
2017-08-07T01:49:39.441Z,0
2017-08-07T01:50:34.344Z,0
2017-08-07T01:51:28.032Z,0
2017-08-07T01:52:28.618Z,0
2017-08-07T01:53:28.647Z,0
2017-08-07T01:54:23.678Z,0
2017-08-07T01:55:17.794Z,0
2017-08-07T01:56:18.714Z,0
2017-08-07T01:57:18.726Z,0
2017-08-07T01:58:13.813Z,0
2017-08-07T01:59:13.806Z,0
2017-08-07T02:00:13.813Z,0
2017-08-07T02:01:19.935Z,0
2017-08-07T02:02:14.958Z,0
2017-08-07T02:03:14.949Z,0
2017-08-07T02:04:09.911Z,0
2017-08-07T02:05:05.025Z,0
2017-08-07T02:06:06.050Z,0
2017-08-07T02:07:06.058Z,0
2017-08-07T02:08:06.128Z,0
2017-08-07T02:09:01.120Z,0
2017-08-07T02:09:55.191Z,0
2017-08-07T02:10:56.186Z,0
2017-08-07T02:11:56.150Z,0
2017-08-07T02:12:56.403Z,0
2017-08-07T02:13:51.229Z,0
2017-08-07T02:14:45.358Z,0
2017-08-07T02:15:45.261Z,0
2017-08-07T02:16:40.438Z,0
2017-08-07T02:17:35.417Z,0
2017-08-07T02:18:36.454Z,0
2017-08-07T02:19:37.412Z,0
2017-08-07T02:20:32.556Z,0
2017-08-07T02:21:26.528Z,0
2017-08-07T02:22:26.609Z,0
2017-08-07T02:23:26.696Z,0
2017-08-07T02:24:21.728Z,0
2017-08-07T02:25:15.670Z,0
2017-08-07T02:26:15.669Z,0
2017-08-07T02:27:10.748Z,0
2017-08-07T02:28:05.762Z,0
2017-08-07T02:29:06.709Z,0
2017-08-07T02:30:06.923Z,0
2017-08-07T02:31:06.876Z,0
2017-08-07T02:32:06.938Z,0
2017-08-07T02:33:08.036Z,0
2017-08-07T02:34:08.869Z,0
2017-08-07T02:35:02.922Z,0
2017-08-07T02:36:03.060Z,0
2017-08-07T02:36:58.112Z,0
2017-08-07T02:37:53.153Z,0
2017-08-07T02:38:53.113Z,0
2017-08-07T02:39:48.198Z,0
2017-08-07T02:40:43.219Z,0
2017-08-07T02:41:43.366Z,0
2017-08-07T02:42:38.282Z,0
2017-08-07T02:43:33.296Z,0
2017-08-07T02:44:39.306Z,0
2017-08-07T02:45:33.376Z,0
2017-08-07T02:46:33.380Z,0
2017-08-07T02:47:28.498Z,0
2017-08-07T02:48:28.436Z,0
2017-08-07T02:49:22.576Z,0
2017-08-07T02:50:22.624Z,0
2017-08-07T02:51:17.634Z,0
2017-08-07T02:52:12.599Z,0
2017-08-07T02:53:12.704Z,0
2017-08-07T02:54:07.646Z,0
2017-08-07T02:55:02.792Z,0
2017-08-07T02:56:02.670Z,0
2017-08-07T02:56:57.845Z,0
2017-08-07T02:57:52.850Z,0
2017-08-07T02:58:53.926Z,0
2017-08-07T02:59:53.970Z,0
2017-08-07T03:00:53.910Z,0
2017-08-07T03:01:53.865Z,0
2017-08-07T03:02:55.031Z,0
2017-08-07T03:03:55.998Z,0
2017-08-07T03:04:50.070Z,0
2017-08-07T03:05:50.154Z,0
2017-08-07T03:06:45.110Z,0
2017-08-07T03:07:40.139Z,0
2017-08-07T03:08:40.264Z,0
2017-08-07T03:09:35.239Z,0
2017-08-07T03:10:30.323Z,0
2017-08-07T03:11:30.319Z,0
2017-08-07T03:12:25.347Z,0
2017-08-07T03:13:20.405Z,0
2017-08-07T03:14:21.334Z,0
2017-08-07T03:15:21.437Z,0
2017-08-07T03:16:21.464Z,0
2017-08-07T03:17:16.492Z,4
2017-08-07T03:18:10.465Z,4
2017-08-07T03:19:10.646Z,0
2017-08-07T03:20:05.641Z,0
2017-08-07T03:21:05.734Z,4
2017-08-07T03:21:59.653Z,4
2017-08-07T03:22:59.687Z,4
2017-08-07T03:23:54.788Z,4
2017-08-07T03:24:54.690Z,8
2017-08-07T03:25:54.816Z,8
2017-08-07T03:27:00.970Z,4
2017-08-07T03:28:00.836Z,8
2017-08-07T03:29:01.781Z,12
2017-08-07T03:29:55.857Z,12
2017-08-07T03:30:55.914Z,12
2017-08-07T03:31:50.997Z,12
2017-08-07T03:32:46.082Z,16
2017-08-07T03:33:46.085Z,20
2017-08-07T03:34:41.085Z,20
2017-08-07T03:35:41.089Z,24
2017-08-07T03:36:41.151Z,28
2017-08-07T03:37:41.211Z,36
2017-08-07T03:38:35.144Z,36
2017-08-07T03:39:35.234Z,44
2017-08-07T03:40:30.290Z,48
2017-08-07T03:41:30.216Z,56
2017-08-07T03:42:31.321Z,64
2017-08-07T03:43:25.416Z,72
2017-08-07T03:44:25.449Z,80
2017-08-07T03:45:20.384Z,88
2017-08-07T03:46:15.497Z,100
2017-08-07T03:47:16.407Z,112
2017-08-07T03:48:16.490Z,128
2017-08-07T03:49:11.626Z,144
2017-08-07T03:50:11.580Z,156
2017-08-07T03:51:05.578Z,176
2017-08-07T03:52:06.698Z,196
2017-08-07T03:53:06.692Z,216
2017-08-07T03:54:01.731Z,240
2017-08-07T03:54:56.764Z,260
2017-08-07T03:55:57.881Z,288
2017-08-07T03:56:57.786Z,316
2017-08-07T03:57:52.806Z,348
2017-08-07T03:58:52.866Z,376
2017-08-07T03:59:53.934Z,412
2017-08-07T04:00:53.854Z,444
2017-08-07T04:01:53.929Z,484
2017-08-07T04:02:54.214Z,524
2017-08-07T04:03:54.054Z,564
2017-08-07T04:04:54.053Z,608
2017-08-07T04:06:01.141Z,660
2017-08-07T04:07:02.145Z,716
2017-08-07T04:08:03.125Z,772
2017-08-07T04:09:03.145Z,824
2017-08-07T04:10:03.148Z,880
2017-08-07T04:11:03.109Z,940
2017-08-07T04:12:03.262Z,1000
2017-08-07T04:13:03.374Z,1064
2017-08-07T04:14:03.346Z,1128
2017-08-07T04:15:03.370Z,1196
2017-08-07T04:16:03.406Z,1268
2017-08-07T04:17:03.408Z,1340
2017-08-07T04:18:03.498Z,1416
2017-08-07T04:19:03.404Z,1488
2017-08-07T04:20:03.563Z,1564
2017-08-07T04:21:03.602Z,1644
2017-08-07T04:22:03.677Z,1720
2017-08-07T04:23:03.748Z,1796
2017-08-07T04:24:09.665Z,1876
2017-08-07T04:25:04.585Z,1952
2017-08-07T04:26:04.601Z,2028
2017-08-07T04:27:04.734Z,2108
2017-08-07T04:27:58.750Z,2184
2017-08-07T04:28:58.813Z,2268
2017-08-07T04:29:53.776Z,2344
2017-08-07T04:30:48.784Z,2412
2017-08-07T04:31:42.904Z,2492
2017-08-07T04:32:42.840Z,2568
2017-08-07T04:33:37.914Z,2640
2017-08-07T04:34:38.030Z,2728
2017-08-07T04:35:37.993Z,2808
2017-08-07T04:36:37.994Z,2892
2017-08-07T04:37:32.062Z,2976
2017-08-07T04:38:32.166Z,3080
2017-08-07T04:39:27.092Z,3124
2017-08-07T04:40:22.192Z,3196
2017-08-07T04:41:16.224Z,3260
2017-08-07T04:42:16.238Z,3336
2017-08-07T04:43:11.288Z,3408
2017-08-07T04:44:06.317Z,3472
2017-08-07T04:45:06.427Z,3548
2017-08-07T04:46:01.360Z,3616
2017-08-07T04:46:56.371Z,3680
2017-08-07T04:47:45.395Z,3756
2017-08-07T04:48:34.369Z,3824
2017-08-07T04:49:34.460Z,3908
2017-08-07T04:50:29.583Z,3980
2017-08-07T04:51:23.660Z,4052
2017-08-07T04:52:23.670Z,4148
2017-08-07T04:53:17.793Z,4240
2017-08-07T04:54:17.735Z,4452
2017-08-07T04:55:06.828Z,4756
2017-08-07T04:55:55.885Z,4892
2017-08-07T04:56:50.140Z,5172
2017-08-07T04:57:49.926Z,5456
2017-08-07T04:58:44.888Z,5816
2017-08-07T04:59:39.019Z,6448
2017-08-07T05:00:39.026Z,6776
2017-08-07T05:01:33.062Z,7240
2017-08-07T05:02:34.140Z,7628
2017-08-07T05:03:28.090Z,7784
2017-08-07T05:04:23.090Z,8044
2017-08-07T05:05:18.145Z,8264
2017-08-07T05:06:18.293Z,8384
2017-08-07T05:07:13.243Z,8812
2017-08-07T05:08:07.354Z,9068
2017-08-07T05:09:07.314Z,9428
2017-08-07T05:10:02.379Z,9684
2017-08-07T05:10:57.447Z,9964
2017-08-07T05:11:58.415Z,9888
2017-08-07T05:12:58.482Z,9828
2017-08-07T05:13:53.503Z,10200
2017-08-07T05:14:48.565Z,10924
2017-08-07T05:15:37.665Z,11272
2017-08-07T05:16:37.665Z,10916
2017-08-07T05:17:32.665Z,10276
2017-08-07T05:18:26.729Z,10340
2017-08-07T05:19:26.814Z,11064
2017-08-07T05:20:20.810Z,11692
2017-08-07T05:21:15.823Z,12960
2017-08-07T05:22:16.437Z,12428
2017-08-07T05:23:10.929Z,13376
2017-08-07T05:24:04.930Z,13352
2017-08-07T05:25:00.083Z,13120
2017-08-07T05:25:53.921Z,13060
2017-08-07T05:26:54.105Z,13148
2017-08-07T05:27:48.122Z,14304
2017-08-07T05:28:48.227Z,15744
2017-08-07T05:29:42.232Z,17312
2017-08-07T05:30:36.251Z,16928
2017-08-07T05:31:25.296Z,14112
2017-08-07T05:32:20.340Z,14592
2017-08-07T05:33:20.376Z,15296
2017-08-07T05:34:20.270Z,16768
2017-08-07T05:35:09.368Z,17152
2017-08-07T05:36:04.514Z,18816
2017-08-07T05:36:58.495Z,19872
2017-08-07T05:37:52.653Z,18720
2017-08-07T05:38:46.657Z,18752
2017-08-07T05:39:41.622Z,20000
2017-08-07T05:40:41.688Z,21536
2017-08-07T05:41:36.132Z,22080
2017-08-07T05:42:30.804Z,23776
2017-08-07T05:43:30.859Z,25888
2017-08-07T05:44:24.814Z,27936
2017-08-07T05:45:12.840Z,28032
2017-08-07T05:46:01.958Z,26912
2017-08-07T05:46:56.280Z,27168
2017-08-07T05:47:49.990Z,29664
2017-08-07T05:48:44.203Z,32224
2017-08-07T05:49:38.210Z,38592
2017-08-07T05:50:27.320Z,44896
2017-08-07T05:51:16.190Z,46880
2017-08-07T05:52:16.599Z,68992
2017-08-07T05:53:10.390Z,91552
2017-08-07T05:53:59.370Z,95200
2017-08-07T05:54:53.449Z,77920
2017-08-07T05:55:42.496Z,63456
2017-08-07T05:56:42.488Z,105152
2017-08-07T05:57:31.922Z,60096
2017-08-07T05:58:19.672Z,49824
2017-08-07T05:59:20.610Z,39616
2017-08-07T06:00:09.767Z,38496
2017-08-07T06:00:57.796Z,36896
2017-08-07T06:01:46.906Z,35552
2017-08-07T06:02:41.890Z,36448
2017-08-07T06:03:35.882Z,27456
2017-08-07T06:04:24.971Z,27520
2017-08-07T06:05:20.075Z,29792
2017-08-07T06:06:15.036Z,32768
2017-08-07T06:07:09.197Z,35104
2017-08-07T06:07:58.356Z,34272
2017-08-07T06:08:52.258Z,31328
2017-08-07T06:09:46.254Z,28224
2017-08-07T06:10:40.367Z,27168
2017-08-07T06:11:28.936Z,29728
2017-08-07T06:12:18.008Z,33952
2017-08-07T06:13:07.024Z,36736
2017-08-07T06:14:01.024Z,36960
2017-08-07T06:14:56.518Z,33024
2017-08-07T06:15:50.555Z,29824
2017-08-07T06:16:38.625Z,28000
2017-08-07T06:17:33.646Z,29536
2017-08-07T06:18:28.780Z,33792
2017-08-07T06:19:23.860Z,38272
2017-08-07T06:20:17.759Z,40096
2017-08-07T06:21:11.947Z,39264
2017-08-07T06:21:59.867Z,37152
2017-08-07T06:22:47.929Z,35040
2017-08-07T06:23:42.134Z,33408
2017-08-07T06:24:36.086Z,33536
2017-08-07T06:25:31.327Z,34976
2017-08-07T06:26:20.128Z,35552
2017-08-07T06:27:14.448Z,36096
2017-08-07T06:28:02.313Z,34784
2017-08-07T06:29:02.393Z,33472
2017-08-07T06:29:51.496Z,33376
2017-08-07T06:30:45.487Z,33376
2017-08-07T06:31:39.537Z,33728
2017-08-07T06:32:28.600Z,33920
2017-08-07T06:33:17.702Z,34624
2017-08-07T06:34:11.788Z,36736
2017-08-07T06:35:00.775Z,37984
2017-08-07T06:36:00.808Z,41344
2017-08-07T06:36:49.857Z,44576
2017-08-07T06:37:38.811Z,48224
2017-08-07T06:38:33.954Z,52960
2017-08-07T06:39:28.941Z,53408
2017-08-07T06:40:16.919Z,51168
2017-08-07T06:41:11.076Z,23584
2017-08-07T06:41:59.199Z,18336
2017-08-07T06:42:48.268Z,19264
2017-08-07T06:43:36.409Z,20480
2017-08-07T06:44:31.362Z,18976
2017-08-07T06:45:20.321Z,19392
2017-08-07T06:46:08.826Z,20576
2017-08-07T06:46:57.531Z,21856
2017-08-07T06:47:45.506Z,21120
2017-08-07T06:48:34.786Z,22240
2017-08-07T06:49:35.644Z,23872
2017-08-07T06:50:24.776Z,23616
2017-08-07T06:51:12.977Z,23008
2017-08-07T06:52:01.921Z,22944
2017-08-07T06:53:01.895Z,23456
2017-08-07T06:53:57.006Z,24480
2017-08-07T06:54:52.028Z,28928
2017-08-07T06:55:40.098Z,27136
2017-08-07T06:56:35.081Z,31616
2017-08-07T06:57:24.173Z,28896
2017-08-07T06:58:13.180Z,31648
2017-08-07T06:59:07.265Z,26112
2017-08-07T06:59:55.240Z,26528
2017-08-07T07:00:49.361Z,34176
2017-08-07T07:01:43.539Z,42656
2017-08-07T07:02:37.445Z,40096
2017-08-07T07:03:31.527Z,27136
2017-08-07T07:04:31.622Z,33856
2017-08-07T07:05:20.717Z,25344
2017-08-07T07:06:20.629Z,26624
2017-08-07T07:07:14.662Z,26688
2017-08-07T07:08:03.781Z,23136
2017-08-07T07:09:03.786Z,22784
2017-08-07T07:09:58.821Z,23296
2017-08-07T07:10:52.921Z,40896
2017-08-07T07:11:48.020Z,26848
2017-08-07T07:12:47.966Z,56128
2017-08-07T07:13:41.975Z,52160
2017-08-07T07:14:37.099Z,61568
2017-08-07T07:15:37.144Z,66368
2017-08-07T07:16:32.258Z,65600
2017-08-07T07:17:20.210Z,63232
2017-08-07T07:18:09.383Z,59392
2017-08-07T07:19:04.506Z,55360
2017-08-07T07:19:53.480Z,52768
2017-08-07T07:20:47.572Z,53120
2017-08-07T07:21:41.806Z,54176
2017-08-07T07:22:36.670Z,57984
2017-08-07T07:23:25.583Z,61312
2017-08-07T07:24:14.966Z,64256
2017-08-07T07:25:08.891Z,64384
2017-08-07T07:26:02.819Z,62656
2017-08-07T07:26:52.335Z,57920
2017-08-07T07:27:39.980Z,59648
2017-08-07T07:28:29.009Z,59712
2017-08-07T07:29:17.975Z,59456
2017-08-07T07:30:12.139Z,56800
2017-08-07T07:30:59.863Z,60032
2017-08-07T07:31:48.241Z,61056
2017-08-07T07:32:42.514Z,62624
2017-08-07T07:33:31.368Z,49888
2017-08-07T07:34:19.392Z,74208
2017-08-07T07:35:08.537Z,72224
2017-08-07T07:36:02.534Z,69728
2017-08-07T07:36:50.359Z,25120
2017-08-07T07:37:45.643Z,40416
2017-08-07T07:38:34.725Z,67008
2017-08-07T07:39:23.712Z,49856
2017-08-07T07:40:17.908Z,29952
2017-08-07T07:41:05.816Z,46816
2017-08-07T07:41:59.899Z,31936
2017-08-07T07:42:53.941Z,35232
2017-08-07T07:43:47.524Z,43936
2017-08-07T07:44:43.038Z,47040
2017-08-07T07:45:37.025Z,34816
2017-08-07T07:46:26.177Z,44352
2017-08-07T07:47:15.177Z,75680
2017-08-07T07:48:03.973Z,35328
2017-08-07T07:48:59.368Z,41792
2017-08-07T07:49:53.313Z,79456
2017-08-07T07:50:47.301Z,39392
2017-08-07T07:51:42.494Z,37376
2017-08-07T07:52:36.526Z,66496
2017-08-07T07:53:30.503Z,64928
2017-08-07T07:54:19.746Z,63424
2017-08-07T07:55:07.882Z,63488
2017-08-07T07:56:02.865Z,66624
2017-08-07T07:56:51.942Z,70208
2017-08-07T07:57:46.060Z,71776
2017-08-07T07:58:33.987Z,75040
2017-08-07T07:59:28.088Z,78592
2017-08-07T08:00:16.121Z,80704
2017-08-07T08:01:10.232Z,82784
2017-08-07T08:01:58.380Z,81856
2017-08-07T08:02:52.353Z,82432
2017-08-07T08:03:47.735Z,81056
2017-08-07T08:04:42.470Z,79136
2017-08-07T08:05:31.559Z,81312
2017-08-07T08:06:26.484Z,81696
2017-08-07T08:07:15.728Z,81632
2017-08-07T08:08:09.677Z,78592
2017-08-07T08:09:10.176Z,74304
2017-08-07T08:10:04.878Z,69856
2017-08-07T08:11:05.807Z,69696
2017-08-07T08:12:06.031Z,69376
2017-08-07T08:13:01.067Z,70208
2017-08-07T08:13:50.142Z,71872
2017-08-07T08:14:38.242Z,73760
2017-08-07T08:15:32.380Z,75456
2017-08-07T08:16:26.373Z,78144
2017-08-07T08:17:15.526Z,80480
2017-08-07T08:18:09.542Z,81920
2017-08-07T08:19:03.582Z,83648
2017-08-07T08:19:58.658Z,81440
2017-08-07T08:20:47.752Z,78368
2017-08-07T08:21:42.814Z,75072
2017-08-07T08:22:37.936Z,72352
2017-08-07T08:23:26.011Z,70080
2017-08-07T08:24:20.938Z,69120
2017-08-07T08:25:15.141Z,67552
2017-08-07T08:26:04.324Z,66624
2017-08-07T08:26:53.416Z,66048
2017-08-07T08:27:48.368Z,65504
2017-08-07T08:28:48.445Z,65312
2017-08-07T08:29:54.579Z,56512
2017-08-07T08:30:48.601Z,61312
2017-08-07T08:31:37.841Z,63200
2017-08-07T08:32:26.824Z,64448
2017-08-07T08:33:15.806Z,67008
2017-08-07T08:34:15.965Z,69120
2017-08-07T08:35:10.103Z,69728
2017-08-07T08:36:10.361Z,70176
2017-08-07T08:37:05.097Z,70528
2017-08-07T08:37:59.138Z,72736
2017-08-07T08:38:53.238Z,74272
2017-08-07T08:39:47.275Z,76512
2017-08-07T08:40:41.465Z,78720
2017-08-07T08:41:30.492Z,80928
2017-08-07T08:42:24.492Z,79360
2017-08-07T08:43:19.523Z,77120
2017-08-07T08:44:07.689Z,78720
2017-08-07T08:45:02.806Z,80064
2017-08-07T08:45:51.846Z,80768
2017-08-07T08:46:41.462Z,79040
2017-08-07T08:47:28.964Z,75360
2017-08-07T08:48:18.662Z,73216
2017-08-07T08:49:12.152Z,68896
2017-08-07T08:50:06.220Z,67296
2017-08-07T08:50:54.244Z,65600
2017-08-07T08:51:43.627Z,64576
2017-08-07T08:52:31.505Z,65600
2017-08-07T08:53:25.658Z,63776
2017-08-07T08:54:13.656Z,63968
2017-08-07T08:55:08.805Z,66752
2017-08-07T08:55:56.881Z,62304
2017-08-07T08:56:44.978Z,66624
2017-08-07T08:57:32.897Z,64256
2017-08-07T08:58:33.952Z,61984
2017-08-07T08:59:22.136Z,61888
2017-08-07T09:00:11.398Z,61952
2017-08-07T09:01:05.346Z,63168
2017-08-07T09:01:54.503Z,66528
2017-08-07T09:02:49.573Z,68864
2017-08-07T09:03:55.574Z,70752
2017-08-07T09:04:44.575Z,72416
2017-08-07T09:05:45.820Z,76864
2017-08-07T09:06:34.764Z,80256
2017-08-07T09:07:28.930Z,80672
2017-08-07T09:08:22.931Z,79872
2017-08-07T09:09:17.130Z,78304
2017-08-07T09:10:11.134Z,76608
2017-08-07T09:11:06.155Z,75200
2017-08-07T09:12:00.292Z,72192
2017-08-07T09:12:48.679Z,72480
2017-08-07T09:13:48.519Z,73344
2017-08-07T09:14:42.446Z,72896
2017-08-07T09:15:36.683Z,69824
2017-08-07T09:16:31.665Z,63744
2017-08-07T09:17:26.694Z,60352
2017-08-07T09:18:21.925Z,60256
2017-08-07T09:19:16.798Z,63072
2017-08-07T09:20:11.934Z,67616
2017-08-07T09:21:00.938Z,72800
2017-08-07T09:21:56.192Z,78720
2017-08-07T09:22:56.234Z,86368
2017-08-07T09:23:56.643Z,91200
2017-08-07T09:24:45.350Z,92192
2017-08-07T09:25:39.565Z,93344
2017-08-07T09:26:33.513Z,92896
2017-08-07T09:27:33.658Z,88032
2017-08-07T09:28:34.812Z,86720
2017-08-07T09:29:28.868Z,84288
2017-08-07T09:30:17.878Z,82336
2017-08-07T09:31:11.990Z,79712
2017-08-07T09:32:12.041Z,76000
2017-08-07T09:33:06.198Z,75584
2017-08-07T09:34:06.217Z,73216
2017-08-07T09:35:00.247Z,67840
2017-08-07T09:35:55.189Z,69472
2017-08-07T09:36:49.432Z,68320
2017-08-07T09:37:37.431Z,67424
2017-08-07T09:38:25.490Z,64800
2017-08-07T09:39:19.606Z,66848
2017-08-07T09:40:13.586Z,68608
2017-08-07T09:41:13.658Z,70624
2017-08-07T09:42:08.658Z,72448
2017-08-07T09:43:02.833Z,73536
2017-08-07T09:43:56.791Z,74560
2017-08-07T09:44:51.916Z,74784
2017-08-07T09:45:41.252Z,74112
2017-08-07T09:46:30.014Z,64448
2017-08-07T09:47:25.076Z,72256
2017-08-07T09:48:19.296Z,73696
2017-08-07T09:49:14.332Z,73504
2017-08-07T09:50:14.292Z,76000
2017-08-07T09:51:03.538Z,76512
2017-08-07T09:51:58.431Z,79200
2017-08-07T09:52:58.476Z,80512
2017-08-07T09:53:52.637Z,81120
2017-08-07T09:54:46.740Z,82176
2017-08-07T09:55:34.866Z,79904
2017-08-07T09:56:35.124Z,79232
2017-08-07T09:57:29.118Z,69888
2017-08-07T09:58:23.110Z,81376
2017-08-07T09:59:18.051Z,67616
2017-08-07T10:00:18.203Z,72608
2017-08-07T10:01:18.243Z,77632
2017-08-07T10:02:07.594Z,85088
2017-08-07T10:03:01.441Z,86784
2017-08-07T10:03:50.527Z,84352
2017-08-07T10:04:44.629Z,83616
2017-08-07T10:05:39.611Z,81760
2017-08-07T10:06:33.659Z,84320
2017-08-07T10:07:28.878Z,83488
2017-08-07T10:08:22.892Z,89376
2017-08-07T10:09:22.961Z,88736
2017-08-07T10:10:16.949Z,94080
2017-08-07T10:11:04.971Z,87264
2017-08-07T10:12:00.114Z,81024
2017-08-07T10:12:55.197Z,19328
2017-08-07T10:13:49.167Z,18720
2017-08-07T10:14:43.301Z,19424
2017-08-07T10:15:37.431Z,21568
2017-08-07T10:16:26.471Z,71296
2017-08-07T10:17:20.531Z,76064
2017-08-07T10:18:14.608Z,75360
2017-08-07T10:19:08.586Z,80608
2017-08-07T10:20:02.720Z,74208
2017-08-07T10:21:02.758Z,77216
2017-08-07T10:22:02.811Z,52160
2017-08-07T10:22:51.864Z,79680
2017-08-07T10:23:40.246Z,76672
2017-08-07T10:24:34.047Z,77152
2017-08-07T10:25:28.082Z,76768
2017-08-07T10:26:22.225Z,73792
2017-08-07T10:27:16.257Z,71232
2017-08-07T10:28:05.392Z,71904
2017-08-07T10:29:00.779Z,69184
2017-08-07T10:29:49.605Z,67616
2017-08-07T10:30:43.632Z,50496
2017-08-07T10:31:37.843Z,71040
2017-08-07T10:32:31.756Z,72288
2017-08-07T10:33:26.822Z,74336
2017-08-07T10:34:26.875Z,75296
2017-08-07T10:35:26.961Z,71968
2017-08-07T10:36:21.126Z,70720
2017-08-07T10:37:16.242Z,70528
2017-08-07T10:38:05.318Z,72544
2017-08-07T10:38:59.479Z,72128
2017-08-07T10:39:48.533Z,69920
2017-08-07T10:40:48.488Z,68576
2017-08-07T10:41:42.604Z,69888
2017-08-07T10:42:37.637Z,71616
2017-08-07T10:43:25.720Z,72960
2017-08-07T10:44:20.792Z,75808
2017-08-07T10:45:15.110Z,69248
2017-08-07T10:46:15.023Z,73568
2017-08-07T10:47:10.066Z,73856
2017-08-07T10:48:05.260Z,73952
2017-08-07T10:48:59.059Z,72384
2017-08-07T10:49:53.369Z,72448
2017-08-07T10:50:53.345Z,72096
2017-08-07T10:51:47.465Z,76992
2017-08-07T10:52:36.545Z,79584
2017-08-07T10:53:30.562Z,79840
2017-08-07T10:54:24.573Z,75968
2017-08-07T10:55:12.816Z,75936
2017-08-07T10:56:07.851Z,74432
2017-08-07T10:57:02.972Z,77024
2017-08-07T10:57:56.985Z,78400
2017-08-07T10:58:46.040Z,77152
2017-08-07T10:59:40.142Z,77184
2017-08-07T11:00:40.366Z,74144
2017-08-07T11:01:35.632Z,70464
2017-08-07T11:02:29.492Z,71008
2017-08-07T11:03:23.543Z,72224
2017-08-07T11:04:12.663Z,71552
2017-08-07T11:05:01.607Z,74048
2017-08-07T11:05:55.722Z,33344
2017-08-07T11:06:49.810Z,76000
2017-08-07T11:07:43.999Z,56416
2017-08-07T11:08:43.923Z,40640
2017-08-07T11:09:38.076Z,72256
2017-08-07T11:10:33.318Z,56736
2017-08-07T11:11:28.308Z,86496
2017-08-07T11:12:16.691Z,90624
2017-08-07T11:13:11.525Z,90688
2017-08-07T11:14:05.550Z,87648
2017-08-07T11:14:59.681Z,82912
2017-08-07T11:15:54.643Z,79104
2017-08-07T11:16:49.850Z,73952
2017-08-07T11:17:43.895Z,76768
2017-08-07T11:18:38.932Z,56320
2017-08-07T11:19:33.027Z,84416
2017-08-07T11:20:28.113Z,87008
2017-08-07T11:21:16.226Z,90304
2017-08-07T11:22:05.256Z,90784
2017-08-07T11:22:59.458Z,87712
2017-08-07T11:23:54.423Z,86368
2017-08-07T11:24:48.553Z,88416
2017-08-07T11:25:43.621Z,89536
2017-08-07T11:26:43.643Z,91200
2017-08-07T11:27:38.732Z,87072
2017-08-07T11:28:27.953Z,80832
2017-08-07T11:29:16.990Z,80928
2017-08-07T11:30:11.009Z,79712
2017-08-07T11:31:05.138Z,78816
2017-08-07T11:31:59.214Z,81216
2017-08-07T11:32:53.282Z,83904
2017-08-07T11:33:47.370Z,87520
2017-08-07T11:34:36.444Z,88800
2017-08-07T11:35:30.590Z,87552
2017-08-07T11:36:31.689Z,79680
2017-08-07T11:37:20.786Z,54624
2017-08-07T11:38:09.952Z,56704
2017-08-07T11:39:04.239Z,51808
2017-08-07T11:39:58.003Z,84960
2017-08-07T11:40:46.955Z,88960
2017-08-07T11:41:41.120Z,51328
2017-08-07T11:42:35.177Z,29024
2017-08-07T11:43:30.321Z,87712
2017-08-07T11:44:19.014Z,66272
2017-08-07T11:45:12.475Z,27648
2017-08-07T11:46:01.566Z,26912
2017-08-07T11:46:49.710Z,25888
2017-08-07T11:47:38.718Z,13824
2017-08-07T11:48:32.832Z,25568
2017-08-07T11:49:26.882Z,27296
2017-08-07T11:50:20.921Z,38368
2017-08-07T11:51:15.065Z,49248
2017-08-07T11:52:10.074Z,30464
2017-08-07T11:53:04.142Z,15956
2017-08-07T11:53:58.190Z,74304
2017-08-07T11:54:47.498Z,72160
2017-08-07T11:55:41.383Z,75424
2017-08-07T11:56:29.480Z,78944
2017-08-07T11:57:18.597Z,85312
2017-08-07T11:58:06.621Z,87712
2017-08-07T11:58:55.781Z,32960
2017-08-07T11:59:55.793Z,83008
2017-08-07T12:00:44.841Z,80096
2017-08-07T12:01:33.927Z,75040
2017-08-07T12:02:22.094Z,74976
2017-08-07T12:03:22.109Z,78208
2017-08-07T12:04:16.229Z,80864
2017-08-07T12:05:05.658Z,82016
2017-08-07T12:05:59.387Z,82048
2017-08-07T12:06:48.545Z,79776
2017-08-07T12:07:37.521Z,77280
2017-08-07T12:08:31.688Z,76576
2017-08-07T12:09:25.723Z,77312
2017-08-07T12:10:15.121Z,63328
2017-08-07T12:11:09.975Z,74272
2017-08-07T12:12:10.094Z,76480
2017-08-07T12:13:05.010Z,71072
2017-08-07T12:14:05.241Z,73216
2017-08-07T12:15:00.258Z,75392
2017-08-07T12:16:00.423Z,73888